Time;durP1;ratioP1;P1;durP2;ratioP2;P2;SDS_P1;SDS_P2;PMS_P1;PMS_P2;Temp;Humidity;BMP_temperature;BMP_pressure;BME280_temperature;BME280_humidity;BME280_pressure;Samples;Min_cycle;Max_cycle;Signal;HPM_P1;HPM_P2
2021/07/21 00:00:50;;;;;;;8.98;6.13;;;;;;;14.28;70.28;100926.47;5093000;28;20924;-81
2021/07/21 00:03:19;;;;;;;8.15;6.20;;;;;;;14.24;70.55;100930.22;5096344;28;20052;-81
2021/07/21 00:05:47;;;;;;;12.43;6.40;;;;;;;14.21;70.95;100926.97;5097386;28;20048;-81
2021/07/21 00:08:15;;;;;;;9.82;5.65;;;;;;;14.24;70.75;100930.22;5079386;28;20060;-82
2021/07/21 00:10:44;;;;;;;7.50;5.65;;;;;;;14.20;70.36;100936.50;5096890;28;20049;-81
2021/07/21 00:13:32;;;;;;;9.50;5.75;;;;;;;14.18;70.81;100926.78;5097488;28;20501;-82
2021/07/21 00:16:10;;;;;;;8.15;5.50;;;;;;;14.16;71.08;100921.50;5097282;28;20052;-81
2021/07/21 00:18:48;;;;;;;8.88;5.70;;;;;;;14.15;70.54;100924.63;5096572;28;20052;-81
2021/07/21 00:21:19;;;;;;;9.23;6.32;;;;;;;14.06;70.27;100930.22;5097444;28;20449;-81
2021/07/21 00:23:46;;;;;;;9.45;6.28;;;;;;;13.99;70.64;100921.47;5096300;28;20401;-82
2021/07/21 00:26:13;;;;;;;8.55;5.85;;;;;;;14.05;70.91;100922.97;5097197;28;20048;-81
2021/07/21 00:28:41;;;;;;;8.82;6.22;;;;;;;14.07;70.70;100925.44;5097056;28;20047;-82
2021/07/21 00:31:09;;;;;;;15.10;6.10;;;;;;;14.01;70.80;100924.78;5098089;28;20056;-80
2021/07/21 00:33:38;;;;;;;9.68;7.07;;;;;;;14.00;70.97;100920.31;5097632;28;20051;-82
2021/07/21 00:36:05;;;;;;;10.40;6.25;;;;;;;13.95;71.06;100926.91;5097506;28;20059;-82
2021/07/21 00:38:36;;;;;;;12.05;7.55;;;;;;;13.95;71.70;100928.88;5096889;28;20437;-82
2021/07/21 00:41:04;;;;;;;10.20;6.68;;;;;;;13.93;72.02;100925.59;5097378;28;20059;-82
2021/07/21 00:43:31;;;;;;;10.27;6.38;;;;;;;13.91;71.57;100917.50;5097141;28;20396;-82
2021/07/21 00:45:58;;;;;;;8.18;6.32;;;;;;;13.92;71.44;100924.78;5095684;28;20048;-82
2021/07/21 00:48:26;;;;;;;8.77;6.38;;;;;;;13.89;71.50;100922.59;5097303;28;20056;-81
2021/07/21 00:50:55;;;;;;;10.73;6.60;;;;;;;13.80;71.53;100925.38;5096530;28;20071;-81
2021/07/21 00:53:26;;;;;;;8.23;5.88;;;;;;;13.83;71.54;100925.88;5096691;28;20400;-81
2021/07/21 00:55:54;;;;;;;9.30;6.47;;;;;;;13.73;71.85;100915.81;5097044;28;20048;-82
2021/07/21 00:58:22;;;;;;;12.15;6.90;;;;;;;13.75;71.45;100916.31;5096490;28;20052;-82
2021/07/21 01:00:55;;;;;;;8.45;6.05;;;;;;;13.75;71.21;100919.09;5097726;28;20051;-82
2021/07/21 01:03:23;;;;;;;10.00;6.03;;;;;;;13.69;71.15;100924.06;5096417;28;20044;-81
2021/07/21 01:05:50;;;;;;;8.27;6.15;;;;;;;13.68;71.45;100919.59;5096585;28;20496;-82
2021/07/21 01:08:20;;;;;;;9.90;6.32;;;;;;;13.60;71.64;100921.19;5096107;28;20055;-81
2021/07/21 01:10:54;;;;;;;8.75;6.47;;;;;;;13.62;71.11;100932.06;5097331;28;20055;-81
2021/07/21 01:13:25;;;;;;;8.35;6.20;;;;;;;13.65;71.33;100931.44;5097007;28;20052;-82
2021/07/21 01:16:02;;;;;;;11.77;6.78;;;;;;;13.68;71.27;100922.38;5099740;28;20401;-80
2021/07/21 01:18:37;;;;;;;8.23;6.45;;;;;;;13.66;71.02;100933.06;5099849;28;20389;-81
2021/07/21 01:21:34;;;;;;;8.30;5.95;;;;;;;13.58;71.30;100931.06;5099199;28;20056;-80
2021/07/21 01:24:22;;;;;;;10.55;6.70;;;;;;;13.52;71.67;100933.22;5098457;28;20481;-81
2021/07/21 01:27:11;;;;;;;10.57;6.75;;;;;;;13.46;71.73;100928.91;5097717;28;20051;-82
2021/07/21 01:29:43;;;;;;;13.45;7.60;;;;;;;13.45;72.12;100929.22;5099333;28;20052;-81
2021/07/21 01:32:13;;;;;;;10.45;6.60;;;;;;;13.44;71.59;100928.41;5098376;28;20052;-82
2021/07/21 01:34:44;;;;;;;10.57;6.72;;;;;;;13.38;71.98;100927.72;5099960;28;20055;-80
2021/07/21 01:37:12;;;;;;;9.57;7.25;;;;;;;13.37;72.20;100925.22;5099300;28;20071;-80
2021/07/21 01:39:45;;;;;;;10.27;7.13;;;;;;;13.37;72.56;100936.41;5099717;28;20056;-81
2021/07/21 01:42:19;;;;;;;11.60;7.22;;;;;;;13.34;72.42;100932.28;5098681;28;20052;-82
2021/07/21 01:44:50;;;;;;;9.55;6.47;;;;;;;13.33;71.84;100925.06;5098793;28;20056;-80
2021/07/21 01:47:22;;;;;;;10.65;7.18;;;;;;;13.28;72.21;100927.94;5099683;28;20063;-81
2021/07/21 01:49:52;;;;;;;8.93;6.53;;;;;;;13.24;72.26;100920.53;5099397;28;20048;-81
2021/07/21 01:52:25;;;;;;;9.95;6.88;;;;;;;13.25;72.34;100923.00;5098132;28;20059;-80
2021/07/21 01:54:55;;;;;;;10.90;6.60;;;;;;;13.15;72.12;100917.69;5099156;28;20388;-81
2021/07/21 01:57:25;;;;;;;11.70;6.88;;;;;;;13.14;72.08;100921.63;5098968;28;20055;-82
2021/07/21 01:59:53;;;;;;;;;;;;;;;12.95;72.59;100930.22;5099093;28;20155;-81
2021/07/21 02:02:23;;;;;;;11.23;6.78;;;;;;;13.07;72.35;100933.28;5099109;28;20265;-82
2021/07/21 02:04:52;;;;;;;10.88;7.30;;;;;;;13.08;72.78;100925.69;5098897;28;20417;-81
2021/07/21 02:07:22;;;;;;;;;;;;;;;13.07;72.69;100932.44;5098356;28;20373;-81
2021/07/21 02:09:50;;;;;;;9.27;6.28;;;;;;;13.06;72.41;100931.63;5099419;28;19920;-81
2021/07/21 02:12:17;;;;;;;10.13;6.75;;;;;;;13.05;72.17;100929.16;5098553;28;20062;-82
2021/07/21 02:14:49;;;;;;;7.85;6.15;;;;;;;13.04;72.47;100931.13;5099690;28;20052;-82
2021/07/21 02:17:17;;;;;;;9.50;7.07;;;;;;;13.00;72.60;100930.13;5099614;28;20461;-82
2021/07/21 02:19:48;;;;;;;10.43;7.05;;;;;;;13.00;72.07;100928.13;5099020;28;20508;-81
2021/07/21 02:22:18;;;;;;;10.35;7.22;;;;;;;13.00;72.17;100936.53;5099352;28;20048;-82
2021/07/21 02:24:47;;;;;;;;;;;;;;;12.92;73.03;100931.69;5099103;28;20496;-81
2021/07/21 02:27:15;;;;;;;10.88;6.93;;;;;;;12.92;72.36;100928.91;5097555;28;19920;-82
2021/07/21 02:29:43;;;;;;;12.00;7.43;;;;;;;12.87;72.39;100928.19;5097606;28;20407;-82
2021/07/21 02:32:15;;;;;;;10.02;7.03;;;;;;;12.89;72.34;100935.16;5097678;28;20048;-81
2021/07/21 02:34:44;;;;;;;11.77;8.20;;;;;;;12.87;72.49;100937.44;5097770;28;20077;-82
2021/07/21 02:37:15;;;;;;;13.75;7.30;;;;;;;12.86;72.68;100938.56;5097082;28;20052;-82
2021/07/21 02:39:44;;;;;;;11.38;6.93;;;;;;;12.84;72.83;100931.66;5098081;28;20067;-81
2021/07/21 02:42:12;;;;;;;10.47;7.10;;;;;;;12.81;72.84;100930.31;5096748;28;20059;-81
2021/07/21 02:44:40;;;;;;;10.43;6.85;;;;;;;12.78;72.39;100936.53;5098308;28;20472;-81
2021/07/21 02:47:08;;;;;;;9.25;7.00;;;;;;;12.72;72.49;100937.81;5098806;28;20441;-81
2021/07/21 02:49:37;;;;;;;11.40;6.57;;;;;;;12.74;72.72;100932.72;5098425;28;20123;-81
2021/07/21 02:52:11;;;;;;;10.20;6.45;;;;;;;12.78;72.60;100928.97;5097795;28;20063;-82
2021/07/21 02:54:44;;;;;;;9.70;6.45;;;;;;;12.77;71.91;100941.31;5097705;28;20055;-81
2021/07/21 02:57:16;;;;;;;10.02;6.70;;;;;;;12.72;72.27;100932.22;5097569;28;20052;-82
2021/07/21 02:59:49;;;;;;;11.13;7.22;;;;;;;12.65;72.86;100935.47;5099170;28;20507;-80
2021/07/21 03:02:23;;;;;;;11.52;7.00;;;;;;;12.65;73.05;100935.47;5098620;28;20047;-81
2021/07/21 03:04:55;;;;;;;10.23;7.15;;;;;;;12.70;72.53;100928.91;5098338;28;20370;-82
2021/07/21 03:07:26;;;;;;;9.98;7.43;;;;;;;12.68;72.35;100934.00;5101692;28;20052;-81
2021/07/21 03:09:53;;;;;;;11.05;7.22;;;;;;;12.65;72.83;100945.81;5098493;28;20382;-81
2021/07/21 03:12:22;;;;;;;11.20;8.07;;;;;;;12.63;72.91;100943.34;5097030;28;20054;-81
2021/07/21 03:14:56;;;;;;;10.73;7.90;;;;;;;12.62;73.25;100944.50;5097447;28;20371;-82
2021/07/21 03:17:27;;;;;;;9.75;7.15;;;;;;;12.64;72.87;100935.75;5097443;28;20416;-82
2021/07/21 03:19:58;;;;;;;13.40;7.82;;;;;;;12.65;73.34;100937.44;5097783;28;20055;-81
2021/07/21 03:22:27;;;;;;;11.40;7.75;;;;;;;12.64;73.04;100945.00;5098127;28;20093;-81
2021/07/21 03:24:55;;;;;;;11.18;7.72;;;;;;;12.65;73.16;100937.44;5097558;28;20067;-81
2021/07/21 03:27:24;;;;;;;11.45;7.88;;;;;;;12.65;72.63;100943.03;5097596;28;20051;-82
2021/07/21 03:29:55;;;;;;;11.50;7.60;;;;;;;12.63;72.79;100945.31;5097924;28;20082;-81
2021/07/21 03:32:26;;;;;;;11.25;6.75;;;;;;;12.59;73.11;100945.09;5091490;28;20490;-81
2021/07/21 03:34:59;;;;;;;10.48;6.97;;;;;;;12.55;72.96;100947.69;5094515;28;20066;-80
2021/07/21 03:37:27;;;;;;;11.18;7.47;;;;;;;12.55;72.77;100950.50;5090345;28;20060;-81
2021/07/21 03:39:57;;;;;;;14.82;7.95;;;;;;;12.54;73.08;100953.63;5093962;28;20063;-80
2021/07/21 03:42:25;;;;;;;;;;;;;;;12.43;73.41;100958.63;5096937;28;20052;-81
2021/07/21 03:44:54;;;;;;;11.07;7.97;;;;;;;12.44;73.28;100949.09;5096752;28;20482;-81
2021/07/21 03:47:23;;;;;;;10.18;7.38;;;;;;;12.47;73.49;100958.81;5096843;28;20048;-81
2021/07/21 03:49:54;;;;;;;11.32;7.80;;;;;;;12.51;73.34;100966.22;5096589;28;20063;-81
2021/07/21 03:52:26;;;;;;;13.52;8.27;;;;;;;12.44;73.26;100967.84;5096486;28;20059;-81
2021/07/21 03:54:59;;;;;;;11.55;8.35;;;;;;;12.46;73.14;100969.16;5096847;28;20048;-81
2021/07/21 03:57:27;;;;;;;12.60;7.68;;;;;;;12.50;73.34;100964.59;5096479;28;20496;-81
2021/07/21 03:59:55;;;;;;;10.70;7.57;;;;;;;12.53;73.18;100975.13;5097535;28;20048;-81
2021/07/21 04:02:22;;;;;;;11.80;7.68;;;;;;;12.44;73.47;100971.44;5096012;28;20056;-79
2021/07/21 04:04:50;;;;;;;11.70;7.35;;;;;;;12.51;73.41;100971.00;5097131;28;20512;-81
2021/07/21 04:07:19;;;;;;;12.88;7.47;;;;;;;12.55;73.15;100972.84;5095723;28;20055;-81
2021/07/21 04:09:59;;;;;;;12.00;7.75;;;;;;;12.57;73.24;100978.94;5096624;28;20381;-81
2021/07/21 04:12:27;;;;;;;10.20;7.35;;;;;;;12.65;72.49;100973.75;5096297;28;20055;-81
2021/07/21 04:14:59;;;;;;;10.68;7.38;;;;;;;12.62;73.09;100971.59;5097281;28;20409;-81
2021/07/21 04:17:29;;;;;;;12.32;6.93;;;;;;;12.65;73.13;100976.56;5098174;28;20052;-80
2021/07/21 04:19:58;;;;;;;12.73;8.05;;;;;;;12.69;72.69;100984.00;5098381;28;20043;-81
2021/07/21 04:22:27;;;;;;;12.13;7.63;;;;;;;12.72;72.66;100977.75;5097622;28;20044;-79
2021/07/21 04:25:00;;;;;;;10.07;6.37;;;;;;;12.78;72.66;100975.66;5090303;28;20056;-80
2021/07/21 04:27:29;;;;;;;10.40;7.18;;;;;;;12.82;72.78;100973.91;5096986;28;20071;-79
2021/07/21 04:29:57;;;;;;;12.80;7.50;;;;;;;12.88;72.51;100980.19;5096184;28;20052;-81
2021/07/21 04:32:25;;;;;;;11.07;8.00;;;;;;;12.91;72.49;100985.94;5096933;28;20061;-81
2021/07/21 04:34:54;;;;;;;14.73;8.85;;;;;;;12.96;73.15;100987.81;5096715;28;20056;-81
2021/07/21 04:37:22;;;;;;;16.02;9.63;;;;;;;13.02;73.86;100983.75;5096328;28;20047;-80
2021/07/21 04:39:52;;;;;;;14.52;8.48;;;;;;;13.08;73.40;100981.63;5089782;28;20052;-81
2021/07/21 04:42:21;;;;;;;;;;;;;;;13.13;73.12;100987.13;5097417;28;20047;-81
2021/07/21 04:44:48;;;;;;;10.18;7.82;;;;;;;13.20;73.30;100987.47;5097209;28;20341;-80
2021/07/21 04:47:16;;;;;;;12.55;7.55;;;;;;;13.24;72.98;100991.28;5096939;28;20063;-81
2021/07/21 04:49:46;;;;;;;11.60;7.72;;;;;;;13.30;72.14;100998.44;5098953;28;20048;-81
2021/07/21 04:52:15;;;;;;;10.65;7.22;;;;;;;13.34;72.09;100998.63;5100903;28;20048;-81
2021/07/21 04:54:43;;;;;;;11.48;7.70;;;;;;;13.38;72.51;101003.25;5100043;28;20067;-80
2021/07/21 04:57:10;;;;;;;13.55;8.15;;;;;;;13.48;72.16;101002.16;5100096;28;20056;-80
2021/07/21 04:59:39;;;;;;;13.02;8.48;;;;;;;13.54;72.57;100998.09;5101140;28;20052;-80
2021/07/21 05:02:07;;;;;;;11.55;8.30;;;;;;;13.55;72.43;101008.13;5100508;28;20052;-81
2021/07/21 05:04:37;;;;;;;12.63;8.75;;;;;;;13.64;72.18;101010.13;5100631;28;20055;-81
2021/07/21 05:07:05;;;;;;;11.50;7.95;;;;;;;13.69;71.92;101013.63;5100339;28;20052;-81
2021/07/21 05:09:32;;;;;;;10.50;7.25;;;;;;;13.75;71.97;101017.94;5094091;28;20098;-81
2021/07/21 05:12:00;;;;;;;10.60;7.35;;;;;;;13.79;71.34;101021.72;5089920;28;20048;-81
2021/07/21 05:14:27;;;;;;;8.80;7.05;;;;;;;13.85;70.80;101019.63;5083734;28;20056;-81
2021/07/21 05:17:04;;;;;;;9.15;6.95;;;;;;;13.90;70.80;101016.69;5099607;28;20044;-81
2021/07/21 05:19:33;;;;;;;11.90;7.25;;;;;;;13.97;70.40;101014.22;5100000;28;20052;-81
2021/07/21 05:22:00;;;;;;;11.57;7.07;;;;;;;14.01;70.59;101018.03;5095172;28;20051;-80
2021/07/21 05:24:30;;;;;;;10.85;7.18;;;;;;;14.01;71.13;101020.00;5090380;28;20067;-80
2021/07/21 05:27:00;;;;;;;11.88;7.50;;;;;;;14.06;71.34;101019.03;5097588;28;20055;-81
2021/07/21 05:29:27;;;;;;;10.68;7.30;;;;;;;14.14;70.89;101021.03;5091068;28;20052;-81
2021/07/21 05:31:56;;;;;;;10.80;7.60;;;;;;;14.17;70.93;101023.19;5093830;28;20051;-80
2021/07/21 05:34:23;;;;;;;13.18;7.75;;;;;;;14.10;70.58;101020.84;5099981;28;20055;-82
2021/07/21 05:36:51;;;;;;;10.60;6.70;;;;;;;14.23;70.32;101026.66;5100332;28;20059;-81
2021/07/21 05:39:18;;;;;;;9.18;6.78;;;;;;;14.31;70.81;101023.88;5099501;28;20051;-81
2021/07/21 05:41:46;;;;;;;9.05;7.47;;;;;;;14.44;69.95;101030.50;5093674;28;20496;-82
2021/07/21 05:44:14;;;;;;;13.18;7.68;;;;;;;14.56;69.33;101022.31;5100278;28;20056;-80
2021/07/21 05:46:41;;;;;;;10.02;7.20;;;;;;;14.69;69.20;101034.53;5100088;28;20071;-81
2021/07/21 05:49:10;;;;;;;9.95;7.03;;;;;;;14.79;68.62;101028.59;5099558;28;20052;-81
2021/07/21 05:51:40;;;;;;;13.70;7.28;;;;;;;14.91;68.07;101022.34;5098047;28;20052;-84
2021/07/21 05:54:08;;;;;;;10.57;7.22;;;;;;;14.91;68.97;101027.94;5092237;28;20052;-74
2021/07/21 05:56:35;;;;;;;13.50;7.95;;;;;;;15.22;68.57;101027.75;5094834;28;20059;-74
2021/07/21 05:59:03;;;;;;;9.73;6.95;;;;;;;15.48;67.52;101029.69;5094243;28;20044;-74
2021/07/21 06:01:30;;;;;;;9.90;7.20;;;;;;;15.68;67.98;101030.13;5094633;28;20055;-75
2021/07/21 06:03:58;;;;;;;12.25;7.30;;;;;;;15.94;65.97;101030.06;5093816;28;20429;-75
2021/07/21 06:06:26;;;;;;;9.63;6.47;;;;;;;15.95;67.22;101031.69;5094304;28;20048;-75
2021/07/21 06:08:54;;;;;;;9.77;6.47;;;;;;;16.40;65.24;101033.97;5087608;28;20056;-75
2021/07/21 06:11:22;;;;;;;8.75;6.70;;;;;;;16.53;64.38;101024.44;5097352;28;20079;-81
2021/07/21 06:13:50;;;;;;;11.23;7.53;;;;;;;16.92;62.89;101022.31;5095439;28;20044;-83
2021/07/21 06:16:19;;;;;;;10.10;6.80;;;;;;;17.22;61.83;101033.50;5099181;28;20048;-83
2021/07/21 06:18:46;;;;;;;8.30;6.47;;;;;;;17.47;61.08;101037.22;5099026;28;20044;-83
2021/07/21 06:21:13;;;;;;;8.32;6.53;;;;;;;17.70;60.13;101034.81;5099162;28;20052;-84
2021/07/21 06:23:42;;;;;;;11.93;7.45;;;;;;;17.91;59.47;101031.94;5098819;28;20062;-81
2021/07/21 06:26:10;;;;;;;14.90;8.30;;;;;;;18.08;59.06;101038.50;5099074;28;20052;-80
2021/07/21 06:28:38;;;;;;;11.25;8.25;;;;;;;18.19;59.26;101043.34;5098835;28;20059;-83
2021/07/21 06:31:06;;;;;;;13.20;8.17;;;;;;;18.28;59.62;101043.22;5098595;28;20385;-79
2021/07/21 06:33:33;;;;;;;10.38;7.40;;;;;;;18.39;59.35;101043.56;5099384;28;20532;-80
2021/07/21 06:36:02;;;;;;;9.93;6.93;;;;;;;18.64;58.44;101038.69;5099367;28;20048;-80
2021/07/21 06:38:30;;;;;;;12.68;6.82;;;;;;;18.81;57.77;101052.56;5098588;28;20412;-84
2021/07/21 06:40:59;;;;;;;10.07;7.32;;;;;;;18.94;57.04;101044.91;5098952;28;20055;-83
2021/07/21 06:43:26;;;;;;;11.25;7.07;;;;;;;19.09;57.18;101040.50;5097319;28;20048;-83
2021/07/21 06:45:54;;;;;;;11.00;6.78;;;;;;;19.29;56.68;101043.47;5098760;28;20048;-83
2021/07/21 06:48:24;;;;;;;11.70;7.97;;;;;;;19.35;56.45;101042.84;5098421;28;20052;-83
2021/07/21 06:50:51;;;;;;;9.70;6.70;;;;;;;19.54;55.75;101042.16;5085596;28;20068;-85
2021/07/21 06:53:19;;;;;;;8.57;6.72;;;;;;;19.77;55.51;101044.44;5091494;28;20052;-81
2021/07/21 06:55:49;;;;;;;10.55;7.13;;;;;;;19.92;55.04;101052.09;5090819;28;20051;-83
2021/07/21 06:58:18;;;;;;;8.93;6.68;;;;;;;20.09;55.23;101048.06;5093602;28;21410;-80
2021/07/21 07:00:45;;;;;;;8.63;6.63;;;;;;;20.20;54.27;101059.66;5093251;28;20067;-81
2021/07/21 07:03:13;;;;;;;10.15;6.60;;;;;;;20.41;53.90;101048.03;5096189;28;20480;-81
2021/07/21 07:05:40;;;;;;;9.02;7.15;;;;;;;20.46;53.71;101050.59;5095390;28;20059;-81
2021/07/21 07:08:09;;;;;;;10.07;7.38;;;;;;;20.61;54.94;101043.28;5096775;28;20061;-85
2021/07/21 07:10:37;;;;;;;10.43;6.82;;;;;;;20.80;54.14;101048.16;5078120;28;20063;-83
2021/07/21 07:13:06;;;;;;;11.43;6.68;;;;;;;20.77;53.88;101054.59;5085631;28;20063;-79
2021/07/21 07:15:35;;;;;;;9.85;6.35;;;;;;;20.82;53.83;101055.09;5096142;28;20059;-82
2021/07/21 07:18:03;;;;;;;8.90;6.60;;;;;;;20.72;54.12;101046.38;5094937;28;20480;-81
2021/07/21 07:20:31;;;;;;;9.93;6.82;;;;;;;20.85;54.14;101057.19;5096526;28;20067;-82
2021/07/21 07:22:58;;;;;;;13.65;6.90;;;;;;;21.22;53.99;101058.78;5097811;28;20400;-82
2021/07/21 07:25:26;;;;;;;10.25;6.88;;;;;;;21.53;52.44;101063.50;5095870;28;20056;-82
2021/07/21 07:27:53;;;;;;;10.40;7.22;;;;;;;21.78;52.77;101063.97;5096195;28;20051;-82
2021/07/21 07:30:21;;;;;;;11.13;7.10;;;;;;;22.05;52.14;101062.03;5097028;28;20047;-82
2021/07/21 07:32:50;;;;;;;8.15;6.22;;;;;;;22.23;51.06;101059.50;5098085;28;20052;-83
2021/07/21 07:35:17;;;;;;;10.00;6.68;;;;;;;22.56;50.38;101065.72;5080431;28;20079;-84
2021/07/21 07:37:45;;;;;;;8.40;6.35;;;;;;;22.81;49.55;101066.88;5078681;28;20056;-83
2021/07/21 07:40:13;;;;;;;7.80;6.03;;;;;;;23.06;49.45;101053.06;5080569;28;20051;-83
2021/07/21 07:42:40;;;;;;;10.60;6.70;;;;;;;23.45;48.32;101057.56;5081487;28;20052;-83
2021/07/21 07:45:09;;;;;;;9.43;5.93;;;;;;;23.72;47.58;101063.97;5095262;28;20056;-83
2021/07/21 07:47:37;;;;;;;9.77;6.15;;;;;;;23.98;47.96;101053.66;5095861;28;20074;-82
2021/07/21 07:50:11;;;;;;;9.05;6.60;;;;;;;24.28;46.34;101057.19;5095577;28;20070;-81
2021/07/21 07:52:39;;;;;;;7.53;5.57;;;;;;;24.61;45.14;101052.59;5097345;28;20052;-87
2021/07/21 07:55:08;;;;;;;7.50;5.63;;;;;;;24.74;44.95;101052.25;5095640;28;20055;-87
2021/07/21 07:57:36;;;;;;;9.35;6.15;;;;;;;24.88;45.04;101058.03;5077972;28;20060;-85
2021/07/21 08:00:06;;;;;;;7.40;5.88;;;;;;;25.07;43.89;101059.75;5092174;28;20064;-82
2021/07/21 08:02:34;;;;;;;8.40;5.43;;;;;;;25.33;43.59;101050.13;5096878;28;20047;-82
2021/07/21 08:05:01;;;;;;;10.35;5.90;;;;;;;25.52;42.63;101046.91;5078088;28;20070;-83
2021/07/21 08:07:32;;;;;;;9.25;6.07;;;;;;;25.87;42.31;101055.94;5089179;28;20044;-81
2021/07/21 08:10:00;;;;;;;8.00;5.53;;;;;;;26.24;40.94;101057.63;5095552;28;20040;-81
2021/07/21 08:12:27;;;;;;;6.63;5.78;;;;;;;26.60;41.01;101057.63;5096389;28;20055;-82
2021/07/21 08:14:56;;;;;;;6.75;5.88;;;;;;;27.59;39.43;101057.69;5081213;28;20060;-83
2021/07/21 08:17:23;;;;;;;7.80;6.18;;;;;;;28.41;36.81;101047.69;5095054;28;20052;-82
2021/07/21 08:19:51;;;;;;;8.95;6.20;;;;;;;28.68;35.90;101050.72;5096839;28;20048;-82
2021/07/21 08:22:18;;;;;;;8.55;5.70;;;;;;;30.01;34.21;101043.25;5095191;28;20056;-80
2021/07/21 08:24:47;;;;;;;8.45;5.30;;;;;;;30.27;33.49;101047.34;5085905;28;20056;-82
2021/07/21 08:27:15;;;;;;;;;;;;;;;30.61;32.88;101044.28;5092492;28;20063;-80
2021/07/21 08:29:42;;;;;;;7.43;5.25;;;;;;;30.49;33.42;101047.81;5098333;28;19926;-82
2021/07/21 08:32:10;;;;;;;9.73;5.57;;;;;;;30.75;32.68;101041.16;5099959;28;20059;-83
2021/07/21 08:34:37;;;;;;;9.30;5.75;;;;;;;31.24;32.32;101043.47;5095018;28;20064;-84
2021/07/21 08:37:05;;;;;;;9.98;5.68;;;;;;;31.80;31.12;101050.47;5087437;28;20067;-84
2021/07/21 08:39:32;;;;;;;8.02;5.25;;;;;;;31.83;31.64;101053.25;5087005;28;20477;-84
2021/07/21 08:42:02;;;;;;;5.97;5.38;;;;;;;32.55;30.75;101048.63;5097447;28;20048;-82
2021/07/21 08:44:30;;;;;;;7.80;5.53;;;;;;;32.89;30.11;101035.75;5096311;28;20056;-83
2021/07/21 08:46:57;;;;;;;7.47;5.50;;;;;;;33.07;29.59;101032.31;5096883;28;20040;-82
2021/07/21 08:49:24;;;;;;;6.05;4.68;;;;;;;33.25;29.46;101032.63;5097286;28;20052;-81
2021/07/21 08:51:54;;;;;;;6.85;5.20;;;;;;;34.92;27.48;101033.28;5096745;28;20044;-81
2021/07/21 08:54:22;;;;;;;6.35;4.90;;;;;;;35.98;25.55;101035.34;5092960;28;20059;-82
2021/07/21 08:56:49;;;;;;;5.10;4.32;;;;;;;37.09;24.94;101035.47;5094191;28;20048;-82
2021/07/21 08:59:19;;;;;;;7.30;5.68;;;;;;;38.19;21.49;101027.66;5093355;28;20485;-82
2021/07/21 09:01:47;;;;;;;5.85;5.18;;;;;;;39.15;20.70;101026.75;5079766;28;20051;-82
2021/07/21 09:04:14;;;;;;;6.28;4.95;;;;;;;40.05;19.49;101025.38;5096692;28;20052;-80
2021/07/21 09:06:42;;;;;;;7.30;5.40;;;;;;;39.84;19.34;101023.66;5096966;28;20047;-80
2021/07/21 09:09:09;;;;;;;7.10;6.38;;;;;;;40.72;17.64;101022.56;5079651;28;20049;-81
2021/07/21 09:11:37;;;;;;;6.80;6.10;;;;;;;41.08;18.04;101026.13;5093409;28;20044;-81
2021/07/21 09:14:07;;;;;;;6.93;5.57;;;;;;;41.36;16.28;101022.69;5097968;28;20527;-81
2021/07/21 09:16:37;;;;;;;6.05;5.35;;;;;;;42.14;15.44;101027.56;5100003;28;20056;-80
2021/07/21 09:19:04;;;;;;;6.13;5.53;;;;;;;43.10;14.90;101017.00;5098155;28;20500;-81
2021/07/21 09:21:31;;;;;;;5.93;5.32;;;;;;;43.77;13.51;101015.44;5098779;28;20764;-80
2021/07/21 09:23:59;;;;;;;7.20;5.13;;;;;;;44.52;13.22;101015.53;5097619;28;20059;-81
2021/07/21 09:26:38;;;;;;;5.85;5.13;;;;;;;45.34;12.01;101027.84;5101847;28;20083;-83
2021/07/21 09:29:09;;;;;;;6.13;4.90;;;;;;;45.74;11.25;101026.19;5099871;28;20075;-83
2021/07/21 09:31:40;;;;;;;4.63;4.20;;;;;;;44.41;11.35;101017.69;5099998;28;20056;-84
2021/07/21 09:34:20;;;;;;;4.85;4.35;;;;;;;42.73;13.14;101020.09;5086899;28;20048;-82
2021/07/21 09:36:48;;;;;;;4.90;3.38;;;;;;;41.22;13.36;101038.25;5088102;28;20409;-81
2021/07/21 09:39:16;;;;;;;4.40;3.05;;;;;;;39.95;13.46;101033.44;5098721;28;20052;-81
2021/07/21 09:41:51;;;;;;;3.78;3.05;;;;;;;39.14;14.71;101037.63;5098318;28;20040;-83
2021/07/21 09:44:18;;;;;;;3.40;2.97;;;;;;;38.18;16.31;101029.00;5095633;28;20052;-84
2021/07/21 09:46:47;;;;;;;3.35;2.88;;;;;;;37.44;16.00;101037.97;5099301;28;20048;-80
2021/07/21 09:49:21;;;;;;;3.17;2.63;;;;;;;37.04;16.06;101050.63;5098192;28;20052;-82
2021/07/21 09:51:48;;;;;;;3.38;3.08;;;;;;;38.01;16.02;101031.47;5098141;28;20059;-82
2021/07/21 09:54:18;;;;;;;4.20;2.35;;;;;;;37.63;15.69;101040.84;5088651;28;20052;-84
2021/07/21 09:56:49;;;;;;;3.05;2.63;;;;;;;36.92;15.68;101042.91;5100813;28;20048;-82
2021/07/21 09:59:23;;;;;;;3.53;2.95;;;;;;;36.33;16.95;101038.03;5098142;28;20059;-86
2021/07/21 10:01:52;;;;;;;3.90;2.70;;;;;;;35.66;16.77;101032.94;5086188;28;20049;-83
2021/07/21 10:04:35;;;;;;;2.90;2.40;;;;;;;34.76;19.22;101037.16;5089459;28;20051;-83
2021/07/21 10:07:14;;;;;;;3.95;2.90;;;;;;;34.00;19.65;101035.25;5087712;28;20052;-81
2021/07/21 10:09:41;;;;;;;;;;;;;;;33.42;20.60;101027.56;5079563;28;20408;-82
2021/07/21 10:12:15;;;;;;;4.20;3.80;;;;;;;35.14;19.79;101036.19;5093433;28;19971;-82
2021/07/21 10:14:54;;;;;;;4.07;3.67;;;;;;;37.56;15.62;101044.91;5098033;28;20063;-86
2021/07/21 10:17:23;;;;;;;4.70;3.88;;;;;;;39.43;15.44;101030.19;5097227;28;20561;-85
2021/07/21 10:19:50;;;;;;;4.80;3.88;;;;;;;41.23;13.67;101036.94;5099016;28;20492;-85
2021/07/21 10:22:17;;;;;;;4.37;3.97;;;;;;;41.44;12.54;101032.59;5085802;28;20044;-85
2021/07/21 10:24:46;;;;;;;3.33;3.03;;;;;;;39.30;14.01;101038.41;5097964;28;20059;-86
2021/07/21 10:27:21;;;;;;;3.95;3.50;;;;;;;38.49;15.50;101036.50;5096884;28;20492;-85
2021/07/21 10:29:49;;;;;;;4.30;3.42;;;;;;;38.33;15.51;101031.97;5094847;28;20048;-85
2021/07/21 10:32:17;;;;;;;4.43;3.92;;;;;;;38.63;16.24;101038.69;5082889;28;20075;-85
2021/07/21 10:34:46;;;;;;;4.85;4.10;;;;;;;41.05;13.47;101033.00;5094636;28;20052;-82
2021/07/21 10:37:17;;;;;;;4.00;3.60;;;;;;;40.33;14.08;101024.97;5096484;28;20052;-81
2021/07/21 10:39:45;;;;;;;4.00;3.50;;;;;;;40.50;14.57;101025.19;5076763;28;20494;-82
2021/07/21 10:42:17;;;;;;;3.60;3.30;;;;;;;41.24;13.16;101032.69;5076984;28;20053;-83
2021/07/21 10:44:56;;;;;;;3.80;2.95;;;;;;;40.40;14.07;101014.97;5077265;28;20053;-83
2021/07/21 10:47:24;;;;;;;4.03;3.50;;;;;;;39.78;14.16;101023.59;5094087;28;20100;-83
2021/07/21 10:49:56;;;;;;;4.93;3.60;;;;;;;40.31;15.69;101022.56;5078841;28;20071;-81
2021/07/21 10:52:45;;;;;;;4.63;4.10;;;;;;;41.47;12.94;101025.69;5096006;28;20043;-83
2021/07/21 10:55:22;;;;;;;3.50;3.20;;;;;;;43.35;10.97;101017.31;5079769;28;20067;-83
2021/07/21 11:00:39;;;;;;;3.40;2.95;;;;;;;42.58;11.78;101023.25;5104531;28;20238;-86
2021/07/21 11:03:18;;;;;;;3.90;3.55;;;;;;;42.15;11.98;101023.31;5098606;28;20444;-86
2021/07/21 11:05:50;;;;;;;4.10;3.70;;;;;;;43.92;11.13;101009.28;5098864;28;20507;-84
2021/07/21 11:08:19;;;;;;;3.90;3.47;;;;;;;45.31;11.19;101005.41;5094633;28;20048;-82
2021/07/21 11:10:48;;;;;;;7.43;4.38;;;;;;;46.58;9.83;101003.00;5096641;28;20063;-83
2021/07/21 11:13:36;;;;;;;3.10;2.78;;;;;;;47.10;9.03;101007.59;5097284;28;20055;-86
2021/07/21 11:16:05;;;;;;;4.00;3.65;;;;;;;48.18;8.58;100997.63;5089269;28;20063;-82
2021/07/21 11:18:50;;;;;;;3.83;3.42;;;;;;;48.23;8.71;101007.72;5089784;28;20048;-81
2021/07/21 11:21:20;;;;;;;4.45;4.05;;;;;;;49.27;8.12;100985.72;5096886;28;20044;-82
2021/07/21 11:23:58;;;;;;;4.65;3.90;;;;;;;50.25;6.63;100986.28;5085450;28;20059;-82
2021/07/21 11:26:46;;;;;;;4.47;3.00;;;;;;;48.85;7.42;100997.50;5087675;28;20068;-81
2021/07/21 11:29:49;;;;;;;3.47;3.17;;;;;;;47.11;8.82;100991.50;5088054;28;20055;-81
2021/07/21 11:32:37;;;;;;;3.95;3.30;;;;;;;46.93;8.89;100992.31;5080217;28;20059;-83
2021/07/21 11:35:40;;;;;;;4.03;3.70;;;;;;;47.33;8.28;100996.22;5094020;28;20055;-84
2021/07/21 11:38:42;;;;;;;3.83;3.53;;;;;;;47.18;8.97;100996.75;5098548;28;20055;-83
2021/07/21 11:41:10;;;;;;;4.88;3.33;;;;;;;48.03;9.80;101000.34;5087092;28;20539;-85